createdAt,value
2019-03-11T00:00:38.119Z,99572.45
2019-03-11T00:03:09.163Z,99575.41
2019-03-11T00:05:38.368Z,99572.09
2019-03-11T00:08:09.275Z,99576.27
2019-03-11T00:10:38.376Z,99571.55
2019-03-11T00:13:08.949Z,99571.00
2019-03-11T00:15:38.051Z,99577.98
2019-03-11T00:18:07.338Z,99572.30
2019-03-11T00:20:38.161Z,99583.19
2019-03-11T00:23:07.394Z,99576.34
2019-03-11T00:25:36.590Z,99572.21
2019-03-11T00:28:05.809Z,99576.48
2019-03-11T00:30:35.203Z,99573.64
2019-03-11T00:33:04.463Z,99573.29
2019-03-11T00:35:33.520Z,99575.63
2019-03-11T00:38:02.754Z,99577.91
2019-03-11T00:40:31.872Z,99579.91
2019-03-11T00:43:00.988Z,99575.04
2019-03-11T00:45:30.221Z,99578.47
2019-03-11T00:48:02.260Z,99573.93
2019-03-11T00:50:30.330Z,99577.84
2019-03-11T00:52:59.778Z,99580.19
2019-03-11T00:55:28.829Z,99577.44
2019-03-11T00:57:57.961Z,99578.06
2019-03-11T01:00:29.889Z,99573.80
2019-03-11T01:02:59.079Z,99573.66
2019-03-11T01:05:28.350Z,99580.81
2019-03-11T01:07:57.701Z,99575.83
2019-03-11T01:10:27.001Z,99575.60
2019-03-11T01:12:56.298Z,99577.35
2019-03-11T01:15:25.704Z,99572.59
2019-03-11T01:17:54.898Z,99585.98
2019-03-11T01:20:24.216Z,99578.79
2019-03-11T01:22:53.494Z,99578.43
2019-03-11T01:25:22.694Z,99575.47
2019-03-11T01:27:55.015Z,99578.43
2019-03-11T01:30:24.167Z,99581.72
2019-03-11T01:32:53.439Z,99589.55
2019-03-11T01:35:22.623Z,99577.67
2019-03-11T01:37:51.734Z,99585.37
2019-03-11T01:40:20.829Z,99581.81
2019-03-11T01:42:51.830Z,99587.70
2019-03-11T01:45:20.978Z,99582.16
2019-03-11T01:47:50.195Z,99580.15
2019-03-11T01:50:19.438Z,99589.98
2019-03-11T01:52:48.667Z,99590.58
2019-03-11T01:55:17.863Z,99589.02
2019-03-11T01:57:46.977Z,99587.11
2019-03-11T02:00:17.682Z,99594.85
2019-03-11T02:02:46.882Z,99600.07
2019-03-11T02:05:16.139Z,99605.91
2019-03-11T02:07:45.373Z,99614.06
2019-03-11T02:10:19.333Z,99610.64
2019-03-11T02:12:48.522Z,99614.20
2019-03-11T02:15:18.960Z,99608.98
2019-03-11T02:17:48.358Z,99609.47
2019-03-11T02:20:18.558Z,99614.20
2019-03-11T02:22:47.727Z,99617.30
2019-03-11T02:25:16.927Z,99623.81
2019-03-11T02:27:47.749Z,99631.91
2019-03-11T02:30:17.923Z,99636.45
2019-03-11T02:32:47.168Z,99638.20
2019-03-11T02:35:30.370Z,99638.70
2019-03-11T02:37:59.566Z,99643.09
2019-03-11T02:40:30.860Z,99649.62
2019-03-11T02:43:00.087Z,99657.22
2019-03-11T02:45:29.279Z,99654.39
2019-03-11T02:47:58.472Z,99651.09
2019-03-11T02:50:27.668Z,99654.19
2019-03-11T02:52:56.856Z,99651.23
2019-03-11T02:55:25.972Z,99651.71
2019-03-11T02:57:55.271Z,99641.31
2019-03-11T03:00:24.546Z,99645.72
2019-03-11T03:03:04.158Z,99642.07
2019-03-11T03:05:34.958Z,99653.22
2019-03-11T03:08:04.148Z,99662.83
2019-03-11T03:10:33.323Z,99662.18
2019-03-11T03:13:02.470Z,99666.97
2019-03-11T03:15:31.649Z,99663.45
2019-03-11T03:18:00.808Z,99675.77
2019-03-11T03:20:29.926Z,99677.81
2019-03-11T03:22:59.152Z,99683.41
2019-03-11T03:25:34.474Z,99687.57
2019-03-11T03:27:59.369Z,99689.45
2019-03-11T03:30:28.694Z,99698.02
2019-03-11T03:32:58.060Z,99698.89
2019-03-11T03:35:27.445Z,99705.66
2019-03-11T03:37:56.581Z,99708.73
2019-03-11T03:40:27.477Z,99715.14
2019-03-11T03:42:56.820Z,99726.19
2019-03-11T03:45:28.654Z,99742.19
2019-03-11T03:47:58.391Z,99751.48
2019-03-11T03:50:30.186Z,99750.45
2019-03-11T03:52:59.251Z,99753.19
2019-03-11T03:55:28.511Z,99755.69
2019-03-11T03:57:57.729Z,99755.33
2019-03-11T04:00:26.922Z,99767.53
2019-03-11T04:02:56.123Z,99774.84
2019-03-11T04:05:25.535Z,99784.90
2019-03-11T04:07:54.720Z,99786.20
2019-03-11T04:10:23.950Z,99792.69
2019-03-11T04:12:53.451Z,99798.84
2019-03-11T04:15:22.664Z,99804.22
2019-03-11T04:17:52.107Z,99805.39
2019-03-11T04:20:23.778Z,99802.31
2019-03-11T04:22:52.984Z,99805.14
2019-03-11T04:25:22.274Z,99808.56
2019-03-11T04:27:51.453Z,99814.00
2019-03-11T04:30:25.242Z,99813.97
2019-03-11T04:32:54.526Z,99813.34
2019-03-11T04:35:23.743Z,99811.09
2019-03-11T04:37:52.918Z,99827.23
2019-03-11T04:40:22.077Z,99822.41
2019-03-11T04:42:51.134Z,99823.12
2019-03-11T04:45:20.336Z,99821.93
2019-03-11T04:47:49.505Z,99832.06
2019-03-11T04:50:19.787Z,99837.81
2019-03-11T04:52:48.983Z,99845.09
2019-03-11T04:55:18.383Z,99835.73
2019-03-11T04:57:55.322Z,99815.77
2019-03-11T05:00:27.455Z,99819.18
2019-03-11T05:02:56.566Z,99822.11
2019-03-11T05:05:25.737Z,99830.83
2019-03-11T05:07:55.070Z,99832.71
2019-03-11T05:10:24.267Z,99836.23
2019-03-11T05:12:53.398Z,99836.50
2019-03-11T05:15:22.682Z,99843.92
2019-03-11T05:17:51.888Z,99841.91
2019-03-11T05:20:21.390Z,99858.74
2019-03-11T05:22:50.573Z,99871.28
2019-03-11T05:25:19.773Z,99872.20
2019-03-11T05:27:48.974Z,99881.77
2019-03-11T05:30:19.401Z,99900.61
2019-03-11T05:32:49.106Z,99903.52
2019-03-11T05:35:18.366Z,99901.51
2019-03-11T05:37:47.576Z,99901.45
2019-03-11T05:40:21.222Z,99900.58
2019-03-11T05:42:50.287Z,99892.50
2019-03-11T05:45:20.305Z,99891.79
2019-03-11T05:47:51.185Z,99903.88
2019-03-11T05:50:20.395Z,99910.81
2019-03-11T05:52:49.646Z,99916.05
2019-03-11T05:55:20.989Z,99920.76
2019-03-11T05:57:50.127Z,99925.02
2019-03-11T06:00:30.073Z,99941.14
2019-03-11T06:02:59.272Z,99936.95
2019-03-11T06:05:28.467Z,99943.84
2019-03-11T06:07:57.622Z,99945.34
2019-03-11T06:10:26.927Z,99950.36
2019-03-11T06:12:56.119Z,99949.16
2019-03-11T06:15:25.344Z,99966.30
2019-03-11T06:17:54.466Z,99977.14
2019-03-11T06:20:31.470Z,99988.54
2019-03-11T06:23:02.530Z,99977.17
2019-03-11T06:25:31.702Z,99960.14
2019-03-11T06:28:00.936Z,99959.42
2019-03-11T06:30:30.122Z,99970.89
2019-03-11T06:32:59.245Z,99975.70
2019-03-11T06:35:28.473Z,99976.52
2019-03-11T06:37:57.658Z,99981.70
2019-03-11T06:40:26.861Z,99985.15
2019-03-11T06:42:56.092Z,99991.44
2019-03-11T06:45:25.275Z,100001.98
2019-03-11T06:47:54.620Z,100015.47
2019-03-11T06:50:23.851Z,100020.09
2019-03-11T06:52:53.119Z,100029.91
2019-03-11T06:55:22.318Z,100030.44
2019-03-11T06:57:51.518Z,100042.73
2019-03-11T07:00:21.870Z,100043.63
2019-03-11T07:02:51.106Z,100063.36
2019-03-11T07:05:21.214Z,100051.17
2019-03-11T07:07:50.510Z,100064.73
2019-03-11T07:10:19.719Z,100041.11
2019-03-11T07:12:48.951Z,100046.00
2019-03-11T07:15:18.225Z,100047.02
2019-03-11T07:17:47.357Z,100047.31
2019-03-11T07:20:19.493Z,100052.61
2019-03-11T07:22:48.703Z,100060.95
2019-03-11T07:25:17.898Z,100044.42
2019-03-11T07:27:47.141Z,100045.48
2019-03-11T07:30:17.757Z,100051.78
2019-03-11T07:32:48.585Z,100059.41
2019-03-11T07:35:17.854Z,100065.83
2019-03-11T07:37:47.139Z,100072.31
2019-03-11T07:40:28.445Z,100074.09
2019-03-11T07:42:48.566Z,100080.34
2019-03-11T07:45:17.985Z,100066.50
2019-03-11T07:47:47.183Z,100072.25
2019-03-11T07:50:17.518Z,100096.16
2019-03-11T07:52:46.782Z,100088.54
2019-03-11T07:55:16.215Z,100089.98
2019-03-11T07:57:46.928Z,100091.55
2019-03-11T08:00:18.380Z,100111.84
2019-03-11T08:02:47.620Z,100131.04
2019-03-11T08:05:17.250Z,100131.13
2019-03-11T08:07:46.469Z,100124.75
2019-03-11T08:10:20.314Z,100139.48
2019-03-11T08:12:49.563Z,100147.07
2019-03-11T08:15:18.827Z,100140.89
2019-03-11T08:17:47.891Z,100152.63
2019-03-11T08:20:17.934Z,100148.57
2019-03-11T08:22:47.227Z,100138.42
2019-03-11T08:25:16.767Z,100130.01
2019-03-11T08:27:45.996Z,100145.54
2019-03-11T08:30:19.313Z,100146.25
2019-03-11T08:32:48.589Z,100146.83
2019-03-11T08:35:17.945Z,100142.56
2019-03-11T08:37:47.160Z,100157.53
2019-03-11T08:40:18.330Z,100161.71
2019-03-11T08:42:47.901Z,100161.50
2019-03-11T08:45:18.705Z,100166.84
2019-03-11T08:47:47.913Z,100174.35
2019-03-11T08:50:17.347Z,100178.30
2019-03-11T08:52:46.744Z,100178.47
2019-03-11T08:55:15.971Z,100182.52
2019-03-11T08:57:45.205Z,100189.91
2019-03-11T09:00:24.751Z,100185.58
2019-03-11T09:02:53.983Z,100191.47
2019-03-11T09:05:23.116Z,100188.36
2019-03-11T09:07:52.313Z,100203.27
2019-03-11T09:10:24.625Z,100201.72
2019-03-11T09:12:55.358Z,100207.34
2019-03-11T09:15:26.067Z,100210.63
2019-03-11T09:17:56.352Z,100219.73
2019-03-11T09:20:25.541Z,100229.61
2019-03-11T09:22:56.355Z,100238.53
2019-03-11T09:25:30.895Z,100250.54
2019-03-11T09:28:00.099Z,100253.25
2019-03-11T09:30:29.295Z,100257.48
2019-03-11T09:32:58.513Z,100255.14
2019-03-11T09:35:29.245Z,100259.30
2019-03-11T09:37:59.766Z,100262.98
2019-03-11T09:40:30.646Z,100266.63
2019-03-11T09:42:59.852Z,100271.16
2019-03-11T09:45:29.046Z,100277.98
2019-03-11T09:47:58.269Z,100276.05
2019-03-11T09:50:30.383Z,100284.14
2019-03-11T09:53:02.532Z,100278.06
2019-03-11T09:55:33.315Z,100278.06
2019-03-11T09:58:04.661Z,100277.67
2019-03-11T10:00:35.812Z,100279.75
2019-03-11T10:03:05.112Z,100269.83
2019-03-11T10:05:34.236Z,100267.90
2019-03-11T10:08:03.428Z,100254.97
2019-03-11T10:10:32.729Z,100241.79
2019-03-11T10:13:01.928Z,100246.95
2019-03-11T10:15:31.125Z,100241.73
2019-03-11T10:18:00.348Z,100210.53
2019-03-11T10:20:29.654Z,100227.23
2019-03-11T10:22:58.853Z,100242.62
2019-03-11T10:25:28.095Z,100249.32
2019-03-11T10:27:57.425Z,100243.99
2019-03-11T10:30:26.610Z,100238.95
2019-03-11T10:32:55.881Z,100231.76
2019-03-11T10:35:33.018Z,100233.74
2019-03-11T10:37:56.055Z,100238.69
2019-03-11T10:40:32.603Z,100233.47
2019-03-11T10:43:01.786Z,100240.80
2019-03-11T10:45:33.149Z,100240.92
2019-03-11T10:48:04.510Z,100236.72
2019-03-11T10:50:35.179Z,100217.34
2019-03-11T10:53:05.579Z,100201.45
2019-03-11T10:55:36.639Z,100186.64
2019-03-11T10:58:05.910Z,100186.77
2019-03-11T11:00:35.157Z,100188.30
2019-03-11T11:03:05.700Z,100186.87
2019-03-11T11:05:36.509Z,100181.68
2019-03-11T11:08:05.804Z,100168.48
2019-03-11T11:10:34.976Z,100169.11
2019-03-11T11:13:04.171Z,100169.63
2019-03-11T11:15:35.756Z,100160.22
2019-03-11T11:18:05.000Z,100155.59
2019-03-11T11:20:34.196Z,100155.83
2019-03-11T11:23:03.715Z,100156.05
2019-03-11T11:25:34.635Z,100156.45
2019-03-11T11:28:04.748Z,100155.80
2019-03-11T11:30:33.945Z,100162.34
2019-03-11T11:33:03.179Z,100163.64
2019-03-11T11:35:32.453Z,100152.66
2019-03-11T11:38:01.649Z,100166.80
2019-03-11T11:40:31.873Z,100172.45
2019-03-11T11:43:01.077Z,100162.45
2019-03-11T11:45:31.878Z,100156.22
2019-03-11T11:48:01.211Z,100140.77
2019-03-11T11:50:30.421Z,100148.41
2019-03-11T11:52:59.551Z,100147.48
2019-03-11T11:55:28.988Z,100146.52
2019-03-11T11:57:58.258Z,100139.69
2019-03-11T12:00:39.384Z,100140.64
2019-03-11T12:03:08.657Z,100124.78
2019-03-11T12:05:37.848Z,100108.59
2019-03-11T12:08:07.171Z,100126.48
2019-03-11T12:10:36.343Z,100112.74
2019-03-11T12:13:05.629Z,100124.73
2019-03-11T12:15:34.870Z,100110.30
2019-03-11T12:18:04.442Z,100087.11
2019-03-11T12:20:33.787Z,100089.79
2019-03-11T12:23:03.063Z,100097.16
2019-03-11T12:25:32.231Z,100083.66
2019-03-11T12:28:01.633Z,100088.47
2019-03-11T12:30:32.083Z,100088.42
2019-03-11T12:33:01.280Z,100111.17
2019-03-11T12:35:30.581Z,100097.77
2019-03-11T12:37:59.923Z,100082.91
2019-03-11T12:40:29.122Z,100075.88
2019-03-11T12:42:58.371Z,100076.42
2019-03-11T12:45:27.867Z,100060.31
2019-03-11T12:47:57.076Z,100057.89
2019-03-11T12:50:33.208Z,100052.42
2019-03-11T12:53:02.444Z,100049.78
2019-03-11T12:55:31.645Z,100052.89
2019-03-11T12:58:00.847Z,100041.13
2019-03-11T13:00:30.002Z,100039.70
2019-03-11T13:02:59.205Z,100033.23
2019-03-11T13:05:28.503Z,100024.22
2019-03-11T13:07:57.665Z,100018.36
2019-03-11T13:10:29.121Z,100035.88
2019-03-11T13:12:58.338Z,100026.53
2019-03-11T13:15:27.875Z,100004.80
2019-03-11T13:17:58.509Z,99999.17
2019-03-11T13:20:33.739Z,100005.15
2019-03-11T13:23:06.124Z,100000.67
2019-03-11T13:25:35.395Z,100000.28
2019-03-11T13:28:04.697Z,100001.03
2019-03-11T13:30:34.865Z,99996.38
2019-03-11T13:33:04.048Z,99994.23
2019-03-11T13:35:33.191Z,99997.36
2019-03-11T13:38:02.319Z,99997.36
2019-03-11T13:40:32.984Z,99998.97
2019-03-11T13:43:02.075Z,99995.86
2019-03-11T13:45:31.203Z,99994.08
2019-03-11T13:48:00.462Z,99983.59
2019-03-11T13:50:31.353Z,99979.38
2019-03-11T13:53:01.998Z,99980.55
2019-03-11T13:55:31.326Z,99980.41
2019-03-11T13:58:02.183Z,99969.25
2019-03-11T14:00:33.007Z,99970.93
2019-03-11T14:03:02.145Z,99965.39
2019-03-11T14:05:31.425Z,99946.55
2019-03-11T14:08:00.478Z,99946.55
2019-03-11T14:10:29.606Z,99933.82
2019-03-11T14:12:58.830Z,99929.92
2019-03-11T14:15:27.948Z,99935.39
2019-03-11T14:17:57.260Z,99937.28
2019-03-11T14:20:26.484Z,99936.19
2019-03-11T14:22:55.819Z,99922.73
2019-03-11T14:25:25.022Z,99930.36
2019-03-11T14:27:54.119Z,99906.94
2019-03-11T14:30:23.829Z,99918.02
2019-03-11T14:32:53.014Z,99918.31
2019-03-11T14:35:22.284Z,99914.95
2019-03-11T14:37:51.480Z,99914.95
2019-03-11T14:40:24.441Z,99921.38
2019-03-11T14:42:53.798Z,99919.09
2019-03-11T14:45:23.900Z,99904.15
2019-03-11T14:47:53.033Z,99907.05
2019-03-11T14:50:22.271Z,99913.34
2019-03-11T14:52:51.461Z,99904.55
2019-03-11T14:55:20.593Z,99904.55
2019-03-11T14:57:49.740Z,99908.19
2019-03-11T15:00:20.146Z,99899.11
2019-03-11T15:02:49.665Z,99899.11
2019-03-11T15:05:19.818Z,99880.10
2019-03-11T15:07:49.032Z,99886.75
2019-03-11T15:10:19.785Z,99885.92
2019-03-11T15:12:49.595Z,99876.17
2019-03-11T15:15:20.601Z,99890.39
2019-03-11T15:17:49.992Z,99876.20
2019-03-11T15:20:19.476Z,99876.66
2019-03-11T15:22:48.900Z,99863.34
2019-03-11T15:25:19.452Z,99869.17
2019-03-11T15:27:49.217Z,99895.47
2019-03-11T15:30:23.055Z,99885.45
2019-03-11T15:32:52.261Z,99895.47
2019-03-11T15:35:21.605Z,99906.77
2019-03-11T15:37:50.872Z,99927.21
2019-03-11T15:40:20.279Z,99933.50
2019-03-11T15:42:49.519Z,99927.39
2019-03-11T15:45:19.522Z,99932.32
2019-03-11T15:47:48.650Z,99928.25
2019-03-11T15:50:29.672Z,99926.49
2019-03-11T15:52:58.861Z,99924.48
2019-03-11T15:55:28.301Z,99924.48
2019-03-11T15:57:57.729Z,99930.36
2019-03-11T16:00:27.001Z,99943.94
2019-03-11T16:02:56.603Z,99945.83
2019-03-11T16:05:26.758Z,99944.00
2019-03-11T16:07:55.969Z,99949.22
2019-03-11T16:10:25.193Z,99968.45
2019-03-11T16:12:54.426Z,99958.30
2019-03-11T16:15:23.817Z,99958.30
2019-03-11T16:17:53.113Z,99944.15
2019-03-11T16:20:23.883Z,99938.32
2019-03-11T16:22:53.081Z,99931.98
2019-03-11T16:25:22.423Z,99921.36
2019-03-11T16:27:51.616Z,99911.30
2019-03-11T16:30:24.899Z,99898.70
2019-03-11T16:32:59.794Z,99890.52
2019-03-11T16:35:26.931Z,99889.02
2019-03-11T16:37:56.138Z,99876.93
2019-03-11T16:40:25.839Z,99887.35
2019-03-11T16:42:55.119Z,99876.67
2019-03-11T16:45:24.425Z,99874.42
2019-03-11T16:47:53.680Z,99867.93
2019-03-11T16:50:24.742Z,99871.78
2019-03-11T16:52:54.045Z,99865.36
2019-03-11T16:55:28.415Z,99868.00
2019-03-11T16:57:57.718Z,99872.75
2019-03-11T17:00:28.652Z,99879.57
2019-03-11T17:02:57.950Z,99901.49
2019-03-11T17:05:27.231Z,99914.48
2019-03-11T17:07:56.536Z,99921.05
2019-03-11T17:10:25.964Z,99927.08
2019-03-11T17:12:55.196Z,99924.84
2019-03-11T17:15:24.344Z,99917.00
2019-03-11T17:17:53.963Z,99911.86
2019-03-11T17:20:23.256Z,99923.82
2019-03-11T17:22:52.466Z,99916.17
2019-03-11T17:25:21.761Z,99901.28
2019-03-11T17:27:51.037Z,99904.41
2019-03-11T17:30:24.658Z,99915.29
2019-03-11T17:32:53.913Z,99903.33
2019-03-11T17:35:23.125Z,99912.26
2019-03-11T17:37:52.476Z,99902.84
2019-03-11T17:40:22.721Z,99896.71
2019-03-11T17:42:52.142Z,99889.77
2019-03-11T17:45:21.558Z,99895.69
2019-03-11T17:47:50.879Z,99904.29
2019-03-11T17:50:24.699Z,99900.77
2019-03-11T17:52:54.280Z,99904.55
2019-03-11T17:55:23.716Z,99897.17
2019-03-11T17:57:52.921Z,99903.45
2019-03-11T18:00:28.878Z,99905.86
2019-03-11T18:02:58.177Z,99911.95
2019-03-11T18:05:27.879Z,99916.87
2019-03-11T18:07:57.155Z,99927.48
2019-03-11T18:10:26.493Z,99938.20
2019-03-11T18:12:55.768Z,99940.77
2019-03-11T18:15:25.171Z,99959.91
2019-03-11T18:17:54.393Z,99967.06
2019-03-11T18:20:23.667Z,99971.28
2019-03-11T18:22:52.911Z,99972.56
2019-03-11T18:25:22.364Z,99956.39
2019-03-11T18:27:51.701Z,99950.62
2019-03-11T18:30:28.983Z,99973.34
2019-03-11T18:32:58.263Z,100008.66
2019-03-11T18:35:27.577Z,100052.73
2019-03-11T18:38:03.918Z,100065.17
2019-03-11T18:40:27.822Z,100056.52
2019-03-11T18:42:57.130Z,100045.97
2019-03-11T18:45:26.402Z,100051.17
2019-03-11T18:47:55.744Z,100065.25
2019-03-11T18:50:25.560Z,100060.63
2019-03-11T18:52:55.093Z,100070.45
2019-03-11T18:55:24.378Z,100083.70
2019-03-11T18:57:53.748Z,100095.54
2019-03-11T19:00:24.245Z,100108.37
2019-03-11T19:02:53.443Z,100104.58
2019-03-11T19:05:24.399Z,100117.70
2019-03-11T19:07:55.130Z,100124.55
2019-03-11T19:10:24.693Z,100113.50
2019-03-11T19:12:54.030Z,100119.35
2019-03-11T19:15:26.721Z,100102.55
2019-03-11T19:17:55.973Z,100091.45
2019-03-11T19:20:26.298Z,100084.98
2019-03-11T19:22:55.668Z,100078.39
2019-03-11T19:25:24.864Z,100068.92
2019-03-11T19:27:54.072Z,100062.05
2019-03-11T19:30:25.748Z,100055.91
2019-03-11T19:32:54.984Z,100049.92
2019-03-11T19:35:24.187Z,100056.28
2019-03-11T19:37:53.607Z,100051.14
2019-03-11T19:40:25.364Z,100046.80
2019-03-11T19:42:54.662Z,100022.59
2019-03-11T19:45:23.945Z,100037.54
2019-03-11T19:47:53.373Z,100033.86
2019-03-11T19:50:22.785Z,100023.94
2019-03-11T19:52:58.283Z,100026.22
2019-03-11T19:55:23.227Z,100032.36
2019-03-11T19:57:52.351Z,100008.83
2019-03-11T20:00:22.726Z,100008.83
2019-03-11T20:02:52.925Z,100027.56
2019-03-11T20:05:27.351Z,100039.72
2019-03-11T20:07:56.607Z,100049.51
2019-03-11T20:10:25.959Z,100053.30
2019-03-11T20:12:55.261Z,100053.30
2019-03-11T20:15:24.713Z,100045.88
2019-03-11T20:17:54.078Z,100063.16
2019-03-11T20:20:23.453Z,100067.02
2019-03-11T20:22:53.219Z,100071.72
2019-03-11T20:25:28.181Z,100071.72
2019-03-11T20:27:57.433Z,100086.23
2019-03-11T20:30:27.105Z,100079.88
2019-03-11T20:32:56.326Z,100080.19
2019-03-11T20:35:25.674Z,100062.56
2019-03-11T20:37:55.257Z,100055.58
2019-03-11T20:40:24.556Z,100055.27
2019-03-11T20:42:53.995Z,100056.03
2019-03-11T20:45:23.496Z,100070.55
2019-03-11T20:47:52.787Z,100070.55
2019-03-11T20:50:22.207Z,100070.95
2019-03-11T20:52:53.774Z,100070.89
2019-03-11T20:55:23.304Z,100091.79
2019-03-11T20:57:52.821Z,100093.98
2019-03-11T21:00:25.084Z,100082.72
2019-03-11T21:02:54.464Z,100082.72
2019-03-11T21:05:41.015Z,100073.63
2019-03-11T21:08:10.543Z,100072.23
2019-03-11T21:10:40.171Z,100075.63
2019-03-11T21:13:09.614Z,100081.52
2019-03-11T21:15:39.022Z,100076.56
2019-03-11T21:18:08.310Z,100088.95
2019-03-11T21:20:37.794Z,100099.67
2019-03-11T21:23:07.369Z,100108.19
2019-03-11T21:25:37.705Z,100099.14
2019-03-11T21:28:07.363Z,100110.87
2019-03-11T21:30:36.730Z,100116.27
2019-03-11T21:33:06.097Z,100120.52
2019-03-11T21:35:35.623Z,100125.75
2019-03-11T21:38:04.956Z,100127.97
2019-03-11T21:40:34.344Z,100138.02
2019-03-11T21:43:03.850Z,100135.75
2019-03-11T21:45:34.790Z,100145.20
2019-03-11T21:48:04.318Z,100141.09
2019-03-11T21:50:33.601Z,100139.08
2019-03-11T21:53:02.937Z,100138.58
2019-03-11T21:55:32.162Z,100130.16
2019-03-11T21:58:12.593Z,100126.93
2019-03-11T22:00:34.785Z,100126.82
2019-03-11T22:03:03.710Z,100130.22
2019-03-11T22:05:33.012Z,100123.80
2019-03-11T22:08:02.103Z,100117.09
2019-03-11T22:10:31.396Z,100108.70
2019-03-11T22:13:00.659Z,100103.46
2019-03-11T22:15:29.844Z,100081.20
2019-03-11T22:17:59.151Z,100081.20
2019-03-11T22:20:28.596Z,100087.91
2019-03-11T22:22:57.827Z,100072.16
2019-03-11T22:25:27.036Z,100072.16
2019-03-11T22:27:56.330Z,100067.91
2019-03-11T22:30:25.916Z,100065.80
2019-03-11T22:32:55.213Z,100060.07
2019-03-11T22:35:24.569Z,100055.69
2019-03-11T22:37:53.695Z,100060.34
2019-03-11T22:40:22.922Z,100063.79
2019-03-11T22:42:52.124Z,100067.53
2019-03-11T22:45:24.117Z,100066.48
2019-03-11T22:47:54.407Z,100074.27
2019-03-11T22:50:23.675Z,100076.48
2019-03-11T22:52:52.899Z,100064.57
2019-03-11T22:55:22.147Z,100061.25
2019-03-11T22:57:51.334Z,100055.97
2019-03-11T23:00:26.991Z,100047.45
2019-03-11T23:02:56.225Z,100048.11
2019-03-11T23:05:25.562Z,100046.56
2019-03-11T23:07:55.581Z,100054.09
2019-03-11T23:10:24.972Z,100055.69
2019-03-11T23:12:54.254Z,100067.91
2019-03-11T23:15:23.438Z,100064.41
2019-03-11T23:17:52.662Z,100057.59
2019-03-11T23:20:21.940Z,100064.25
2019-03-11T23:22:51.146Z,100067.13
2019-03-11T23:25:20.357Z,100078.35
2019-03-11T23:27:49.720Z,100082.62
2019-03-11T23:30:19.242Z,100083.53
2019-03-11T23:32:48.458Z,100081.13
2019-03-11T23:35:17.648Z,100083.24
2019-03-11T23:37:46.871Z,100089.60
2019-03-11T23:40:16.152Z,100095.39
2019-03-11T23:42:45.428Z,100095.29
2019-03-11T23:45:14.635Z,100109.13
2019-03-11T23:47:43.785Z,100109.66
2019-03-11T23:50:14.036Z,100113.35
2019-03-11T23:52:43.232Z,100108.86
2019-03-11T23:55:13.216Z,100106.72
2019-03-11T23:57:42.385Z,100117.66
